Time;durP1;ratioP1;P1;durP2;ratioP2;P2;SDS_P1;SDS_P2;PMS_P1;PMS_P2;Temp;Humidity;BMP_temperature;BMP_pressure;BME280_temperature;BME280_humidity;BME280_pressure;Samples;Min_cycle;Max_cycle;Signal;HPM_P1;HPM_P2
2022/06/19 00:02:20;;;;;;;12.40;2.70;;;25.60;53.70;;;;;;5033774;28;20048;-73
2022/06/19 00:04:48;;;;;;;6.00;2.38;;;25.80;53.20;;;;;;5034521;28;20038;-73
2022/06/19 00:07:15;;;;;;;7.05;2.40;;;26.10;52.80;;;;;;5053133;28;20039;-74
2022/06/19 00:09:41;;;;;;;10.15;2.55;;;26.10;52.50;;;;;;5033700;28;20038;-74
2022/06/19 00:12:08;;;;;;;12.95;3.35;;;26.20;52.60;;;;;;5034040;28;20048;-73
2022/06/19 00:14:35;;;;;;;8.82;3.28;;;26.20;52.40;;;;;;5031611;28;20490;-74
2022/06/19 00:17:04;;;;;;;10.13;2.95;;;26.20;52.70;;;;;;5033728;28;20033;-74
2022/06/19 00:19:30;;;;;;;9.25;3.13;;;26.10;53.40;;;;;;5032119;28;20045;-76
2022/06/19 00:21:56;;;;;;;14.38;3.50;;;26.00;53.10;;;;;;5033663;28;20045;-74
2022/06/19 00:24:23;;;;;;;9.10;2.17;;;25.90;53.20;;;;;;5032686;28;20036;-75
2022/06/19 00:26:50;;;;;;;7.43;2.95;;;25.90;53.40;;;;;;5022683;28;20037;-74
2022/06/19 00:29:16;;;;;;;7.47;2.20;;;25.80;53.60;;;;;;5032882;28;20046;-74
2022/06/19 00:31:43;;;;;;;14.98;3.80;;;25.70;53.60;;;;;;5033272;28;20033;-74
2022/06/19 00:34:10;;;;;;;14.68;2.90;;;25.90;53.30;;;;;;5032630;28;20387;-74
2022/06/19 00:36:36;;;;;;;9.45;2.75;;;25.90;53.40;;;;;;5031145;28;20046;-77
2022/06/19 00:39:03;;;;;;;10.32;3.15;;;25.90;53.00;;;;;;5033702;28;20466;-74
2022/06/19 00:41:41;;;;;;;10.10;2.20;;;25.90;52.90;;;;;;5035108;28;20037;-77
2022/06/19 00:44:10;;;;;;;6.53;2.17;;;25.90;52.90;;;;;;5033051;28;20045;-74
2022/06/19 00:46:51;;;;;;;9.82;3.13;;;25.90;52.90;;;;;;5031129;28;20041;-74
2022/06/19 00:49:32;;;;;;;9.27;2.40;;;25.80;52.60;;;;;;5033154;28;20046;-74
2022/06/19 00:52:20;;;;;;;13.10;3.05;;;25.80;52.80;;;;;;5033073;28;20037;-74
2022/06/19 00:54:59;;;;;;;11.30;2.72;;;25.90;52.50;;;;;;5032735;28;20470;-75
2022/06/19 00:57:28;;;;;;;10.07;2.47;;;25.90;52.50;;;;;;5032550;28;20068;-74
2022/06/19 01:00:00;;;;;;;8.02;2.88;;;25.90;52.20;;;;;;5032237;28;20037;-75
2022/06/19 01:02:26;;;;;;;11.85;2.78;;;25.90;52.20;;;;;;5032868;28;20037;-74
2022/06/19 01:04:54;;;;;;;10.55;3.05;;;25.90;52.30;;;;;;5031650;28;20029;-75
2022/06/19 01:07:22;;;;;;;9.40;2.08;;;26.00;52.20;;;;;;5032766;28;20045;-74
2022/06/19 01:09:50;;;;;;;11.55;3.42;;;25.90;52.20;;;;;;5034479;28;20459;-74
2022/06/19 01:12:18;;;;;;;13.48;3.33;;;25.80;52.30;;;;;;5047607;28;20033;-74
2022/06/19 01:14:46;;;;;;;12.63;2.78;;;25.80;52.50;;;;;;5031075;28;20037;-74
2022/06/19 01:17:15;;;;;;;11.00;2.72;;;25.70;52.40;;;;;;5031630;28;20033;-74
2022/06/19 01:19:43;;;;;;;7.63;2.72;;;25.70;52.70;;;;;;5047976;28;20380;-74
2022/06/19 01:22:33;;;;;;;10.68;2.58;;;25.60;52.60;;;;;;5032187;28;20463;-74
2022/06/19 01:25:10;;;;;;;9.95;2.72;;;25.50;52.80;;;;;;5030953;28;20494;-75
2022/06/19 01:30:28;;;;;;;16.60;3.67;;;25.50;52.80;;;;;;5032337;28;20037;-74
2022/06/19 01:32:56;;;;;;;8.73;2.47;;;25.50;52.60;;;;;;5032437;28;20029;-74
2022/06/19 01:35:24;;;;;;;11.40;3.63;;;25.50;52.70;;;;;;5030811;28;20036;-74
2022/06/19 01:37:51;;;;;;;10.13;3.55;;;25.40;52.70;;;;;;5031868;28;20033;-74
2022/06/19 01:40:37;;;;;;;10.75;3.17;;;25.30;52.80;;;;;;5047318;28;20040;-74
2022/06/19 01:43:05;;;;;;;13.68;4.13;;;25.30;53.10;;;;;;5051074;28;20033;-74
2022/06/19 01:45:32;;;;;;;15.05;4.32;;;25.20;53.20;;;;;;5031358;28;20028;-76
2022/06/19 01:48:00;;;;;;;13.05;3.60;;;25.10;53.40;;;;;;5032379;28;20037;-74
2022/06/19 01:50:30;;;;;;;15.60;4.20;;;24.90;53.40;;;;;;5032497;28;20033;-74
2022/06/19 01:53:04;;;;;;;11.50;4.05;;;24.80;53.80;;;;;;5036363;28;20048;-74
2022/06/19 01:55:32;;;;;;;17.40;4.07;;;24.60;54.50;;;;;;5037229;28;20364;-76
2022/06/19 01:58:00;;;;;;;14.02;3.67;;;24.60;54.50;;;;;;5036543;28;20029;-74
2022/06/19 02:00:30;;;;;;;13.05;4.22;;;24.50;54.50;;;;;;5036309;28;20477;-74
2022/06/19 02:03:27;;;;;;;6.57;2.55;;;24.40;54.80;;;;;;5035825;28;20489;-74
2022/06/19 02:05:54;;;;;;;10.35;3.05;;;24.40;54.50;;;;;;5035333;28;20036;-73
2022/06/19 02:08:21;;;;;;;12.52;2.97;;;24.60;54.40;;;;;;5041873;28;20482;-74
2022/06/19 02:10:48;;;;;;;10.15;3.22;;;24.50;54.50;;;;;;5044255;28;20032;-74
2022/06/19 02:13:16;;;;;;;11.30;2.72;;;24.50;54.70;;;;;;5043336;28;20049;-74
2022/06/19 02:15:46;;;;;;;8.77;2.70;;;24.50;54.50;;;;;;5039882;28;20044;-74
2022/06/19 02:18:34;;;;;;;10.30;2.50;;;24.40;54.60;;;;;;5046460;28;20025;-74
2022/06/19 02:21:01;;;;;;;8.73;2.03;;;24.30;54.80;;;;;;5045143;28;20044;-74
2022/06/19 02:23:36;;;;;;;14.38;4.55;;;24.20;55.60;;;;;;5043403;28;20517;-74
2022/06/19 02:26:05;;;;;;;8.98;2.35;;;24.10;55.50;;;;;;5047960;28;20029;-75
2022/06/19 02:28:36;;;;;;;9.50;2.40;;;24.00;55.40;;;;;;5046172;28;20056;-77
2022/06/19 02:31:06;;;;;;;18.17;3.08;;;24.00;55.50;;;;;;5038692;28;20041;-74
2022/06/19 02:33:38;;;;;;;11.27;2.65;;;23.90;55.80;;;;;;5036305;28;20030;-77
2022/06/19 02:36:32;;;;;;;5.65;2.35;;;23.80;55.90;;;;;;5046946;28;20043;-74
2022/06/19 02:39:11;;;;;;;8.68;2.13;;;23.70;56.10;;;;;;5048957;28;20051;-74
2022/06/19 02:41:45;;;;;;;14.53;2.73;;;23.60;56.80;;;;;;5041664;28;20099;-74
2022/06/19 02:44:11;;;;;;;8.45;2.38;;;23.50;57.10;;;;;;5038051;28;20115;-74
2022/06/19 02:46:38;;;;;;;14.73;4.13;;;23.40;56.90;;;;;;5049477;28;20398;-74
2022/06/19 02:49:04;;;;;;;7.75;2.42;;;23.40;57.20;;;;;;5035387;28;20044;-74
2022/06/19 02:51:30;;;;;;;10.70;2.95;;;23.30;57.30;;;;;;5035784;28;20041;-74
2022/06/19 02:53:58;;;;;;;7.55;2.63;;;23.30;57.60;;;;;;5035248;28;20037;-73
2022/06/19 02:56:24;;;;;;;12.02;3.25;;;23.30;57.60;;;;;;5034609;28;20036;-74
2022/06/19 02:58:50;;;;;;;13.55;3.47;;;23.20;57.60;;;;;;5034933;28;20030;-74
2022/06/19 03:01:16;;;;;;;10.20;2.92;;;23.20;57.80;;;;;;5035651;28;20029;-74
2022/06/19 03:03:42;;;;;;;8.05;2.33;;;23.20;58.00;;;;;;5033523;28;20032;-74
2022/06/19 03:06:09;;;;;;;12.02;3.78;;;23.30;57.60;;;;;;5033861;28;20036;-74
2022/06/19 03:08:35;;;;;;;14.13;4.72;;;23.40;57.40;;;;;;5035386;28;20037;-77
2022/06/19 03:11:04;;;;;;;10.38;2.58;;;23.40;57.30;;;;;;5035778;28;20033;-74
2022/06/19 03:13:31;;;;;;;9.50;2.60;;;23.40;58.00;;;;;;5047111;28;20045;-74
2022/06/19 03:16:07;;;;;;;10.63;2.47;;;23.30;57.60;;;;;;5033695;28;20042;-74
2022/06/19 03:18:35;;;;;;;9.05;2.90;;;23.30;57.60;;;;;;5035385;28;20037;-76
2022/06/19 03:21:01;;;;;;;10.20;2.72;;;23.30;57.80;;;;;;5034832;28;20034;-73
2022/06/19 03:23:29;;;;;;;7.35;3.08;;;23.20;57.80;;;;;;5034917;28;20041;-73
2022/06/19 03:25:55;;;;;;;11.55;2.78;;;23.20;58.00;;;;;;5033762;28;20044;-73
2022/06/19 03:28:22;;;;;;;10.43;3.10;;;23.10;58.40;;;;;;5034594;28;20034;-73
2022/06/19 03:30:53;;;;;;;9.70;2.72;;;23.00;58.50;;;;;;5033764;28;20112;-73
2022/06/19 03:33:19;;;;;;;9.40;2.72;;;23.00;58.70;;;;;;5034234;28;20040;-73
2022/06/19 03:35:47;;;;;;;11.18;3.38;;;22.90;59.10;;;;;;5032137;28;20037;-74
2022/06/19 03:38:13;;;;;;;9.38;3.30;;;22.90;59.00;;;;;;5034647;28;20029;-74
2022/06/19 03:40:39;;;;;;;6.82;2.30;;;22.90;59.10;;;;;;5046595;28;20048;-74
2022/06/19 03:43:05;;;;;;;12.82;3.38;;;22.90;59.40;;;;;;5048329;28;20025;-73
2022/06/19 03:45:31;;;;;;;9.68;3.63;;;22.90;59.30;;;;;;5032902;28;20036;-73
2022/06/19 03:47:57;;;;;;;8.80;3.15;;;23.00;59.20;;;;;;5033799;28;20037;-73
2022/06/19 03:50:24;;;;;;;10.07;2.25;;;23.10;59.20;;;;;;5034024;28;20033;-73
2022/06/19 03:52:50;;;;;;;8.73;3.38;;;23.10;59.20;;;;;;5037137;28;20034;-73
2022/06/19 03:55:16;;;;;;;11.10;2.92;;;23.20;59.10;;;;;;5032989;28;20025;-73
2022/06/19 03:57:42;;;;;;;8.25;2.75;;;23.20;58.80;;;;;;5035589;28;20094;-73
2022/06/19 04:00:15;;;;;;;9.93;2.78;;;23.30;59.00;;;;;;5052668;28;20033;-75
2022/06/19 04:02:43;;;;;;;14.32;2.88;;;23.40;58.50;;;;;;5034078;28;20037;-75
2022/06/19 04:05:11;;;;;;;11.30;3.22;;;23.50;58.60;;;;;;5032581;28;20033;-74
2022/06/19 04:07:46;;;;;;;9.07;2.00;;;23.60;58.80;;;;;;5039380;28;20045;-75
2022/06/19 04:10:13;;;;;;;7.68;2.33;;;23.60;58.70;;;;;;5033747;28;20364;-74
2022/06/19 04:12:39;;;;;;;8.82;2.80;;;23.70;58.50;;;;;;5033295;28;20498;-75
2022/06/19 04:15:06;;;;;;;8.57;2.60;;;23.80;58.30;;;;;;5032096;28;20033;-75
2022/06/19 04:17:32;;;;;;;7.63;2.78;;;24.00;58.50;;;;;;5049326;28;20048;-75
2022/06/19 04:19:58;;;;;;;6.35;2.15;;;24.20;58.20;;;;;;5033478;28;20033;-73
2022/06/19 04:22:25;;;;;;;8.80;2.10;;;24.80;58.60;;;;;;5033640;28;20489;-73
2022/06/19 04:24:51;;;;;;;9.75;3.97;;;25.50;56.60;;;;;;5031830;28;20502;-73
2022/06/19 04:27:17;;;;;;;6.85;1.90;;;26.00;55.30;;;;;;5033197;28;20786;-73
2022/06/19 04:29:43;;;;;;;10.90;3.30;;;26.60;54.50;;;;;;5033089;28;20025;-73
2022/06/19 04:32:09;;;;;;;17.63;3.35;;;27.00;54.50;;;;;;5039256;28;20042;-73
2022/06/19 04:34:35;;;;;;;11.73;2.70;;;27.40;53.10;;;;;;5033248;28;20023;-76
2022/06/19 04:37:02;;;;;;;14.50;3.45;;;27.60;52.50;;;;;;5032826;28;20029;-73
2022/06/19 04:39:28;;;;;;;9.70;4.22;;;28.00;52.40;;;;;;5033536;28;20029;-74
2022/06/19 04:41:54;;;;;;;9.15;3.08;;;28.00;51.50;;;;;;5035538;28;20037;-74
2022/06/19 04:44:21;;;;;;;6.97;2.60;;;28.20;51.00;;;;;;5046032;28;20022;-74
2022/06/19 04:46:48;;;;;;;7.75;3.45;;;28.40;50.70;;;;;;5033049;28;20056;-74
2022/06/19 04:49:15;;;;;;;10.70;3.45;;;29.00;52.00;;;;;;5033600;28;20037;-74
2022/06/19 04:51:42;;;;;;;9.73;2.30;;;29.50;50.70;;;;;;5032818;28;20438;-74
2022/06/19 04:54:09;;;;;;;11.43;3.63;;;29.50;49.00;;;;;;5037224;28;20095;-74
2022/06/19 04:56:35;;;;;;;8.07;2.10;;;29.40;50.30;;;;;;5032260;28;20041;-76
2022/06/19 04:59:02;;;;;;;9.20;2.33;;;29.20;50.20;;;;;;5045942;28;20029;-73
2022/06/19 05:01:31;;;;;;;10.00;2.58;;;29.60;50.20;;;;;;5039543;28;20044;-74
2022/06/19 05:04:02;;;;;;;8.75;2.28;;;29.90;49.10;;;;;;5039754;28;20041;-73
2022/06/19 05:06:28;;;;;;;10.40;3.22;;;30.00;48.60;;;;;;5040220;28;20506;-74
2022/06/19 05:08:55;;;;;;;14.23;3.22;;;30.20;49.00;;;;;;5043759;28;20666;-74
2022/06/19 05:11:23;;;;;;;9.65;3.80;;;30.70;48.90;;;;;;5046059;28;20044;-74
2022/06/19 05:13:50;;;;;;;10.50;3.13;;;31.50;48.00;;;;;;5040862;28;20049;-74
2022/06/19 05:16:19;;;;;;;8.23;2.28;;;31.40;47.00;;;;;;5031025;28;20041;-74
2022/06/19 05:18:46;;;;;;;;;;;31.80;48.10;;;;;;5037346;28;20459;-75
2022/06/19 05:21:13;;;;;;;7.72;3.22;;;31.90;46.80;;;;;;5039060;28;19916;-74
2022/06/19 05:23:42;;;;;;;11.40;2.53;;;31.90;46.70;;;;;;5032008;28;20386;-74
2022/06/19 05:26:26;;;;;;;10.30;2.58;;;32.20;47.20;;;;;;5038441;28;20045;-74
2022/06/19 05:28:53;;;;;;;12.43;3.83;;;32.50;45.40;;;;;;5035705;28;20041;-74
2022/06/19 05:31:20;;;;;;;9.40;2.95;;;32.10;45.80;;;;;;5033106;28;20040;-74
2022/06/19 05:33:47;;;;;;;9.77;3.00;;;32.30;47.10;;;;;;5032569;28;20029;-74
2022/06/19 05:36:13;;;;;;;11.00;2.70;;;32.40;45.70;;;;;;5032645;28;20483;-74
2022/06/19 05:38:39;;;;;;;11.73;3.00;;;32.60;45.50;;;;;;5032307;28;20037;-74
2022/06/19 05:41:06;;;;;;;13.95;3.53;;;32.50;46.20;;;;;;5033895;28;20033;-74
2022/06/19 05:43:34;;;;;;;11.73;3.63;;;32.40;46.00;;;;;;5032815;28;20037;-75
2022/06/19 05:46:06;;;;;;;10.15;3.58;;;32.10;46.10;;;;;;5031438;28;20037;-74
2022/06/19 05:48:33;;;;;;;10.50;3.47;;;32.10;46.60;;;;;;5033763;28;20048;-75
2022/06/19 05:51:05;;;;;;;13.18;3.08;;;32.10;46.30;;;;;;5032239;28;20041;-74
2022/06/19 05:53:36;;;;;;;15.95;3.67;;;32.50;46.80;;;;;;5032660;28;20034;-74
2022/06/19 05:56:03;;;;;;;14.27;3.45;;;32.40;46.10;;;;;;5030908;28;20475;-74
2022/06/19 05:58:30;;;;;;;14.25;4.45;;;31.70;47.50;;;;;;5033387;28;20029;-74
2022/06/19 06:00:56;;;;;;;9.75;3.30;;;31.60;47.50;;;;;;5049611;28;20052;-74
2022/06/19 06:03:26;;;;;;;11.07;2.95;;;31.60;46.90;;;;;;5030842;28;20038;-74
2022/06/19 06:05:52;;;;;;;10.32;3.42;;;31.40;46.80;;;;;;5030264;28;20025;-74
2022/06/19 06:08:19;;;;;;;11.60;3.40;;;32.00;46.60;;;;;;5037252;28;20052;-74
2022/06/19 06:10:48;;;;;;;10.02;4.03;;;31.70;46.80;;;;;;5042011;28;20026;-74
2022/06/19 06:13:14;;;;;;;15.10;3.67;;;31.80;46.90;;;;;;5032364;28;20068;-75
2022/06/19 06:15:40;;;;;;;9.88;3.60;;;31.70;47.40;;;;;;5030290;28;20033;-74
2022/06/19 06:18:07;;;;;;;13.02;4.13;;;32.30;47.20;;;;;;5043426;28;20490;-74
2022/06/19 06:20:33;;;;;;;15.27;4.13;;;32.40;47.20;;;;;;5050609;28;20032;-76
2022/06/19 06:22:59;;;;;;;8.57;3.45;;;31.80;47.10;;;;;;5036762;28;20030;-74
2022/06/19 06:25:25;;;;;;;11.15;3.67;;;31.40;47.30;;;;;;5040163;28;20036;-74
2022/06/19 06:27:51;;;;;;;10.85;3.95;;;31.20;48.00;;;;;;5039289;28;20046;-74
2022/06/19 06:30:18;;;;;;;14.63;3.28;;;31.40;47.80;;;;;;5050601;28;20043;-74
2022/06/19 06:32:44;;;;;;;11.05;4.25;;;31.80;47.80;;;;;;5049588;28;20041;-75
2022/06/19 06:35:10;;;;;;;11.35;4.93;;;31.90;47.30;;;;;;5037611;28;20037;-74
2022/06/19 06:37:37;;;;;;;11.05;4.00;;;31.60;47.90;;;;;;5046320;28;20036;-77
2022/06/19 06:40:09;;;;;;;11.57;4.05;;;31.20;47.90;;;;;;5046386;28;20037;-75
2022/06/19 06:42:35;;;;;;;14.50;4.60;;;31.40;48.50;;;;;;5038956;28;20041;-77
2022/06/19 06:45:02;;;;;;;9.30;3.25;;;31.80;47.70;;;;;;5038543;28;20029;-73
2022/06/19 06:47:28;;;;;;;10.35;4.93;;;32.30;47.50;;;;;;5070407;28;20049;-74
2022/06/19 06:49:55;;;;;;;11.65;3.78;;;32.70;47.70;;;;;;5043273;28;20049;-73
2022/06/19 06:52:21;;;;;;;7.07;3.92;;;32.70;46.70;;;;;;5036414;28;20026;-73
2022/06/19 06:54:47;;;;;;;12.63;3.75;;;32.70;47.00;;;;;;5033397;28;20033;-73
2022/06/19 06:57:14;;;;;;;8.05;3.70;;;32.30;47.10;;;;;;5048727;28;20033;-73
2022/06/19 06:59:40;;;;;;;16.30;4.07;;;32.30;47.80;;;;;;5039218;28;20041;-75
2022/06/19 07:02:06;;;;;;;7.68;3.90;;;32.60;47.30;;;;;;5034837;28;20025;-73
2022/06/19 07:04:32;;;;;;;8.38;3.40;;;32.90;47.70;;;;;;5034896;28;20037;-73
2022/06/19 07:06:58;;;;;;;8.50;4.35;;;32.60;46.70;;;;;;5045616;28;20044;-73
2022/06/19 07:09:25;;;;;;;9.10;3.97;;;32.80;47.10;;;;;;5053089;28;20033;-73
2022/06/19 07:11:51;;;;;;;7.88;3.88;;;33.50;46.80;;;;;;5034474;28;20063;-73
2022/06/19 07:14:18;;;;;;;12.02;4.03;;;33.60;46.00;;;;;;5034354;28;20072;-75
2022/06/19 07:16:45;;;;;;;7.47;3.78;;;33.60;46.60;;;;;;5035075;28;20042;-73
2022/06/19 07:19:11;;;;;;;10.35;4.15;;;33.30;46.70;;;;;;5034405;28;20394;-73
2022/06/19 07:21:38;;;;;;;7.93;4.43;;;33.70;46.70;;;;;;5034425;28;20037;-76
2022/06/19 07:24:05;;;;;;;8.10;3.78;;;33.60;46.30;;;;;;5035605;28;20042;-74
2022/06/19 07:26:31;;;;;;;10.52;3.95;;;33.50;46.30;;;;;;5032251;28;20037;-73
2022/06/19 07:28:58;;;;;;;12.45;4.32;;;33.60;47.10;;;;;;5034387;28;20577;-73
2022/06/19 07:31:24;;;;;;;9.73;4.30;;;33.80;46.40;;;;;;5034936;28;20041;-74
2022/06/19 07:33:50;;;;;;;7.30;3.45;;;34.10;46.80;;;;;;5033907;28;20041;-74
2022/06/19 07:36:20;;;;;;;10.45;4.25;;;34.20;46.00;;;;;;5033180;28;20030;-74
2022/06/19 07:38:46;;;;;;;8.52;3.97;;;34.20;46.60;;;;;;5034202;28;20038;-74
2022/06/19 07:41:12;;;;;;;7.50;4.25;;;33.80;46.40;;;;;;5034470;28;20034;-74
2022/06/19 07:43:39;;;;;;;5.70;3.97;;;34.10;46.60;;;;;;5034234;28;20037;-75
2022/06/19 07:46:06;;;;;;;7.75;4.00;;;33.90;46.20;;;;;;5033246;28;20447;-74
2022/06/19 07:51:18;;;;;;;10.00;4.38;;;33.70;46.40;;;;;;5039491;28;20041;-74
2022/06/19 07:53:44;;;;;;;12.88;4.60;;;33.80;47.00;;;;;;5033344;28;20038;-75
2022/06/19 07:56:10;;;;;;;10.65;4.30;;;34.00;47.10;;;;;;5033253;28;20033;-74
2022/06/19 07:58:37;;;;;;;11.80;3.97;;;34.30;46.20;;;;;;5033448;28;20067;-75
2022/06/19 08:01:04;;;;;;;10.13;3.97;;;34.70;46.20;;;;;;5033785;28;20036;-73
2022/06/19 08:03:30;;;;;;;9.45;4.30;;;35.00;45.60;;;;;;5037338;28;20037;-74
2022/06/19 08:05:56;;;;;;;6.28;4.03;;;35.20;46.30;;;;;;5034691;28;20041;-74
2022/06/19 08:08:25;;;;;;;5.75;4.15;;;35.10;45.60;;;;;;5039159;28;20105;-74
2022/06/19 08:10:54;;;;;;;8.32;4.53;;;35.00;45.50;;;;;;5037999;28;20029;-74
2022/06/19 08:13:22;;;;;;;8.40;3.63;;;34.60;46.90;;;;;;5047311;28;20053;-74
2022/06/19 08:15:50;;;;;;;11.25;4.47;;;34.20;46.30;;;;;;5035399;28;20486;-76
2022/06/19 08:18:16;;;;;;;8.40;4.70;;;34.30;46.60;;;;;;5039925;28;20059;-75
2022/06/19 08:20:42;;;;;;;9.35;4.50;;;34.70;45.80;;;;;;5048047;28;20382;-73
2022/06/19 08:23:09;;;;;;;7.90;4.22;;;34.80;46.00;;;;;;5056940;28;20021;-75
2022/06/19 08:25:35;;;;;;;8.18;4.53;;;34.80;45.90;;;;;;5047453;28;20022;-74
2022/06/19 08:28:01;;;;;;;9.93;4.10;;;34.60;45.50;;;;;;5057998;28;20033;-75
2022/06/19 08:30:31;;;;;;;10.00;4.32;;;34.80;45.80;;;;;;5053242;28;20898;-74
2022/06/19 08:32:57;;;;;;;11.60;4.75;;;35.30;45.10;;;;;;5043664;28;20510;-74
2022/06/19 08:35:24;;;;;;;8.88;3.75;;;34.70;45.90;;;;;;5044073;28;20040;-74
2022/06/19 08:37:54;;;;;;;8.55;3.45;;;34.70;45.80;;;;;;5035088;28;20029;-74
2022/06/19 08:40:44;;;;;;;8.43;4.18;;;34.30;46.10;;;;;;5033237;28;20033;-73
2022/06/19 08:43:40;;;;;;;6.88;4.38;;;34.70;45.60;;;;;;5037901;28;20052;-74
2022/06/19 08:46:18;;;;;;;11.45;5.40;;;35.40;45.30;;;;;;5032066;28;20034;-75
2022/06/19 08:49:22;;;;;;;6.20;3.80;;;35.30;44.60;;;;;;5033234;28;20041;-73
2022/06/19 08:52:05;;;;;;;8.77;4.20;;;35.90;44.10;;;;;;5033264;28;20409;-74
2022/06/19 08:54:52;;;;;;;10.73;5.10;;;35.60;44.10;;;;;;5031914;28;20033;-74
2022/06/19 08:57:36;;;;;;;13.50;4.85;;;35.50;44.90;;;;;;5041814;28;20443;-73
2022/06/19 09:00:15;;;;;;;6.78;4.60;;;35.20;44.70;;;;;;5044993;28;20040;-73
2022/06/19 09:02:59;;;;;;;;;;;34.50;45.10;;;;;;5033283;28;20034;-74
2022/06/19 09:05:46;;;;;;;9.30;4.15;;;35.20;45.70;;;;;;5037172;28;19909;-74
2022/06/19 09:08:34;;;;;;;6.10;4.03;;;35.80;44.40;;;;;;5033734;28;20046;-76
2022/06/19 09:11:39;;;;;;;8.07;4.25;;;35.50;43.30;;;;;;5044696;28;20132;-75
2022/06/19 09:14:33;;;;;;;7.32;3.33;;;35.10;44.50;;;;;;5035690;28;20064;-75
2022/06/19 09:17:19;;;;;;;6.75;3.67;;;35.30;43.80;;;;;;5033139;28;20021;-75
2022/06/19 09:20:07;;;;;;;7.38;3.22;;;35.80;43.00;;;;;;5032907;28;20033;-77
2022/06/19 09:23:04;;;;;;;7.43;3.60;;;36.30;43.40;;;;;;5048295;28;20033;-74
2022/06/19 09:25:52;;;;;;;10.30;3.35;;;36.60;42.80;;;;;;5044678;28;20466;-75
2022/06/19 09:28:34;;;;;;;5.13;3.47;;;37.00;41.90;;;;;;5037952;28;20049;-75
2022/06/19 09:31:04;;;;;;;6.13;3.40;;;36.10;42.60;;;;;;5032380;28;20038;-75
2022/06/19 09:33:48;;;;;;;5.78;3.38;;;36.60;43.70;;;;;;5032590;28;20022;-74
2022/06/19 09:36:42;;;;;;;6.65;3.80;;;36.40;42.70;;;;;;5031934;28;20032;-75
2022/06/19 09:39:35;;;;;;;7.22;4.00;;;36.70;42.90;;;;;;5033334;28;20498;-76
2022/06/19 09:42:24;;;;;;;5.93;3.75;;;37.20;42.50;;;;;;5043697;28;20049;-76
2022/06/19 09:45:00;;;;;;;7.40;3.00;;;37.50;41.50;;;;;;5032411;28;20045;-76
2022/06/19 09:47:51;;;;;;;8.38;3.53;;;38.20;42.40;;;;;;5033638;28;20060;-76
2022/06/19 09:50:32;;;;;;;8.05;4.75;;;37.60;41.00;;;;;;5041903;28;20029;-76
2022/06/19 09:53:10;;;;;;;9.40;3.97;;;36.30;42.30;;;;;;5043490;28;20040;-75
2022/06/19 09:55:43;;;;;;;5.13;2.95;;;36.70;42.20;;;;;;5045492;28;20029;-78
2022/06/19 09:58:15;;;;;;;9.23;4.90;;;36.80;42.30;;;;;;5049766;28;20052;-75
2022/06/19 10:00:45;;;;;;;7.70;3.83;;;35.80;42.40;;;;;;5048097;28;20382;-75
2022/06/19 10:03:37;;;;;;;9.98;4.15;;;35.30;42.40;;;;;;5047694;28;20413;-75
2022/06/19 10:06:09;;;;;;;8.00;3.97;;;34.90;42.80;;;;;;5044940;28;20029;-76
2022/06/19 10:08:48;;;;;;;10.45;3.78;;;35.10;43.50;;;;;;5044244;28;20029;-75
2022/06/19 10:11:19;;;;;;;8.27;4.38;;;35.50;42.70;;;;;;5041990;28;20037;-75
2022/06/19 10:13:49;;;;;;;7.88;3.78;;;35.90;43.00;;;;;;5047411;28;20064;-75
2022/06/19 10:16:48;;;;;;;11.07;4.35;;;35.70;43.00;;;;;;5047110;28;20029;-75
2022/06/19 10:19:19;;;;;;;12.88;4.45;;;34.90;44.40;;;;;;5043779;28;20056;-74
2022/06/19 10:22:15;;;;;;;8.25;4.10;;;34.90;43.60;;;;;;5049763;28;20040;-75
2022/06/19 10:25:02;;;;;;;6.85;4.00;;;35.00;44.10;;;;;;5034009;28;20041;-77
2022/06/19 10:28:06;;;;;;;7.47;3.90;;;34.90;43.50;;;;;;5036481;28;20393;-75
2022/06/19 10:30:50;;;;;;;7.50;4.72;;;35.40;43.80;;;;;;5055184;28;20025;-77
2022/06/19 10:33:31;;;;;;;8.73;4.53;;;35.60;43.20;;;;;;5050949;28;20489;-74
2022/06/19 10:36:10;;;;;;;9.15;4.78;;;35.80;43.50;;;;;;5041578;28;20036;-75
2022/06/19 10:39:09;;;;;;;6.95;4.50;;;35.90;43.40;;;;;;5037061;28;20029;-75
2022/06/19 10:44:57;;;;;;;8.00;3.60;;;35.00;43.60;;;;;;5040959;28;19921;-77
2022/06/19 10:47:50;;;;;;;13.30;5.50;;;35.20;43.50;;;;;;5042342;28;20025;-75
2022/06/19 10:50:41;;;;;;;7.45;4.03;;;35.40;43.00;;;;;;5044804;28;20414;-76
2022/06/19 10:53:23;;;;;;;10.68;4.40;;;35.20;43.80;;;;;;5050443;28;20025;-76
2022/06/19 10:56:08;;;;;;;7.18;3.50;;;35.40;43.70;;;;;;5041410;28;20041;-75
2022/06/19 10:58:36;;;;;;;7.70;3.40;;;35.50;43.10;;;;;;5038415;28;20064;-75
2022/06/19 11:01:06;;;;;;;6.40;4.17;;;35.10;43.00;;;;;;5040675;28;20394;-76
2022/06/19 11:06:36;;;;;;;;;;;34.90;43.70;;;;;;5056267;28;20032;-76
2022/06/19 11:09:10;;;;;;;6.85;3.53;;;35.10;43.70;;;;;;5038435;28;19920;-76
2022/06/19 11:11:38;;;;;;;12.20;4.28;;;35.50;43.40;;;;;;5041093;28;20025;-76
2022/06/19 11:14:09;;;;;;;11.48;4.70;;;35.70;42.60;;;;;;5047762;28;20371;-76
2022/06/19 11:16:56;;;;;;;8.02;4.00;;;35.30;42.90;;;;;;5043316;28;20036;-75
2022/06/19 11:19:46;;;;;;;6.72;3.53;;;35.60;42.60;;;;;;5048619;28;20032;-77
2022/06/19 11:22:24;;;;;;;8.15;3.92;;;35.50;43.40;;;;;;5048496;28;20364;-76
2022/06/19 11:24:52;;;;;;;8.18;4.07;;;35.10;43.20;;;;;;5047172;28;20025;-76
2022/06/19 11:27:24;;;;;;;8.05;3.90;;;34.50;44.20;;;;;;5052369;28;20025;-75
2022/06/19 11:29:53;;;;;;;8.82;3.60;;;34.50;43.30;;;;;;5053836;28;20045;-75
2022/06/19 11:32:21;;;;;;;;;;;34.80;44.70;;;;;;5055088;28;20048;-76
2022/06/19 11:34:58;;;;;;;9.98;4.43;;;35.30;43.10;;;;;;5050027;28;20397;-77
2022/06/19 11:37:45;;;;;;;12.15;4.20;;;35.50;42.80;;;;;;5048917;28;20052;-76
2022/06/19 11:40:16;;;;;;;11.73;4.32;;;35.60;44.00;;;;;;5051200;28;20402;-76
2022/06/19 11:43:01;;;;;;;9.75;4.75;;;35.90;43.20;;;;;;5045278;28;20037;-77
2022/06/19 11:45:37;;;;;;;10.38;3.45;;;36.10;43.40;;;;;;5038771;28;20041;-76
2022/06/19 11:48:13;;;;;;;13.27;4.43;;;36.30;42.50;;;;;;5036585;28;20033;-76
2022/06/19 11:50:41;;;;;;;9.40;4.05;;;36.10;42.40;;;;;;5044249;28;20033;-75
2022/06/19 11:53:08;;;;;;;8.52;4.38;;;36.20;42.90;;;;;;5048866;28;20048;-76
2022/06/19 11:55:38;;;;;;;6.25;3.90;;;35.80;43.10;;;;;;5035659;28;20382;-77
2022/06/19 11:58:31;;;;;;;7.32;3.72;;;35.60;43.00;;;;;;5035013;28;20037;-77
2022/06/19 12:01:08;;;;;;;11.55;5.40;;;35.60;42.90;;;;;;5037687;28;20032;-77
2022/06/19 12:03:55;;;;;;;6.55;3.88;;;35.70;43.10;;;;;;5048195;28;20041;-76
2022/06/19 12:06:49;;;;;;;10.20;3.78;;;35.90;42.40;;;;;;5035009;28;20025;-75
2022/06/19 12:09:42;;;;;;;14.00;4.38;;;35.90;42.10;;;;;;5036635;28;20387;-78
2022/06/19 12:12:11;;;;;;;6.82;4.03;;;35.90;43.00;;;;;;5036013;28;20037;-75
2022/06/19 12:14:52;;;;;;;;;;;35.60;42.90;;;;;;5036218;28;20046;-77
2022/06/19 12:17:32;;;;;;;13.57;4.93;;;35.80;42.60;;;;;;5035644;28;19920;-76
2022/06/19 12:20:16;;;;;;;5.65;3.58;;;36.00;42.50;;;;;;5034668;28;20037;-76
2022/06/19 12:23:07;;;;;;;13.27;5.18;;;36.20;42.50;;;;;;5053405;28;20040;-77
2022/06/19 12:25:46;;;;;;;6.13;3.63;;;36.10;43.10;;;;;;5046118;28;20393;-78
2022/06/19 12:28:32;;;;;;;7.20;3.65;;;36.10;43.10;;;;;;5043815;28;20052;-77
2022/06/19 12:31:02;;;;;;;6.97;3.92;;;36.40;42.60;;;;;;5035970;28;20430;-77
2022/06/19 12:33:45;;;;;;;7.20;4.32;;;36.40;42.50;;;;;;5037721;28;20033;-76
2022/06/19 12:36:17;;;;;;;10.52;5.03;;;36.50;42.70;;;;;;5044347;28;20040;-76
2022/06/19 12:38:46;;;;;;;12.45;4.75;;;36.80;41.90;;;;;;5051655;28;20037;-78
2022/06/19 12:41:29;;;;;;;13.70;4.20;;;36.60;42.20;;;;;;5034396;28;20034;-77
2022/06/19 12:44:15;;;;;;;8.75;3.65;;;36.70;41.90;;;;;;5046648;28;20038;-76
2022/06/19 12:47:06;;;;;;;9.25;4.85;;;35.90;42.10;;;;;;5058266;28;20040;-77
2022/06/19 12:49:51;;;;;;;10.55;4.35;;;35.80;41.90;;;;;;5033056;28;20037;-76
2022/06/19 12:52:41;;;;;;;11.73;4.25;;;36.00;42.60;;;;;;5032903;28;20490;-77
2022/06/19 12:55:20;;;;;;;9.27;4.82;;;36.40;41.70;;;;;;5033434;28;20029;-76
2022/06/19 12:58:01;;;;;;;12.03;4.43;;;36.40;42.40;;;;;;5034977;28;20037;-76
2022/06/19 13:00:42;;;;;;;12.02;4.18;;;36.60;41.90;;;;;;5033144;28;20033;-76
2022/06/19 13:03:23;;;;;;;7.35;4.53;;;36.60;41.70;;;;;;5032974;28;20048;-76
2022/06/19 13:06:05;;;;;;;12.25;4.35;;;36.20;42.00;;;;;;5031373;28;20037;-77
2022/06/19 13:08:34;;;;;;;11.05;4.22;;;36.50;42.60;;;;;;5033061;28;20045;-76
2022/06/19 13:11:09;;;;;;;17.15;5.03;;;36.80;42.70;;;;;;5033066;28;20566;-77
2022/06/19 13:14:04;;;;;;;8.77;5.00;;;36.70;42.30;;;;;;5032494;28;20426;-77
2022/06/19 13:16:47;;;;;;;9.40;3.53;;;36.40;42.40;;;;;;5039992;28;20494;-76
2022/06/19 13:19:17;;;;;;;8.60;3.53;;;35.80;41.90;;;;;;5037981;28;20042;-76
2022/06/19 13:21:57;;;;;;;7.60;3.88;;;35.70;41.90;;;;;;5032852;28;20034;-78
2022/06/19 13:24:44;;;;;;;8.82;4.20;;;36.10;42.20;;;;;;5031100;28;20490;-78